createdAt,value
2023-05-19T00:01:29.445Z,98815.56
2023-05-19T00:03:59.227Z,98803.31
2023-05-19T00:06:33.669Z,98799.22
2023-05-19T00:09:05.594Z,98804.78
2023-05-19T00:11:32.598Z,98798.44
2023-05-19T00:14:00.930Z,98801.00
2023-05-19T00:16:29.566Z,98801.16
2023-05-19T00:18:58.441Z,98794.41
2023-05-19T00:21:25.124Z,98795.25
2023-05-19T00:23:51.879Z,98792.13
2023-05-19T00:26:18.762Z,98793.31
2023-05-19T00:28:45.479Z,98795.41
2023-05-19T00:31:12.142Z,98792.03
2023-05-19T00:33:38.896Z,98789.28
2023-05-19T00:36:06.063Z,98787.66
2023-05-19T00:38:34.778Z,98787.53
2023-05-19T00:41:02.330Z,98789.06
2023-05-19T00:43:34.503Z,98792.28
2023-05-19T00:46:01.355Z,98787.94
2023-05-19T00:48:28.068Z,98779.63
2023-05-19T00:51:02.352Z,98792.56
2023-05-19T00:53:30.089Z,98782.91
2023-05-19T00:55:57.512Z,98782.81
2023-05-19T00:58:29.344Z,98780.47
2023-05-19T01:01:04.746Z,98778.13
2023-05-19T01:03:35.379Z,98785.97
2023-05-19T01:06:06.347Z,98772.88
2023-05-19T01:08:34.268Z,98774.63
2023-05-19T01:11:01.047Z,98772.84
2023-05-19T01:13:29.133Z,98774.44
2023-05-19T01:16:19.392Z,98776.53
2023-05-19T01:19:02.054Z,98781.31
2023-05-19T01:21:37.678Z,98771.06
2023-05-19T01:24:23.503Z,98776.53
2023-05-19T01:27:18.629Z,98771.88
2023-05-19T01:30:19.741Z,98775.38
2023-05-19T01:32:48.700Z,98785.34
2023-05-19T01:35:16.893Z,98785.13
2023-05-19T01:37:45.554Z,98784.66
2023-05-19T01:40:12.976Z,98788.56
2023-05-19T01:42:41.013Z,98787.31
2023-05-19T01:45:11.381Z,98788.13
2023-05-19T01:47:41.891Z,98788.25
2023-05-19T01:50:09.146Z,98782.78
2023-05-19T01:52:35.871Z,98786.59
2023-05-19T01:55:02.563Z,98787.63
2023-05-19T01:57:56.976Z,98787.19
2023-05-19T02:00:23.647Z,98793.09
2023-05-19T02:03:15.293Z,98781.00
2023-05-19T02:05:54.763Z,98783.28
2023-05-19T02:11:12.961Z,98781.66
2023-05-19T02:13:44.157Z,98778.50
2023-05-19T02:16:13.516Z,98778.56
2023-05-19T02:18:45.677Z,98780.03
2023-05-19T02:21:13.785Z,98778.47
2023-05-19T02:23:42.152Z,98786.25
2023-05-19T02:26:09.049Z,98786.25
2023-05-19T02:31:10.253Z,98786.88
2023-05-19T02:33:37.725Z,98784.16
2023-05-19T02:36:04.977Z,98779.59
2023-05-19T02:38:31.912Z,98780.69
2023-05-19T02:40:58.850Z,98785.22
2023-05-19T02:43:25.709Z,98786.00
2023-05-19T02:45:52.616Z,98786.81
2023-05-19T02:48:19.421Z,98779.69
2023-05-19T02:50:46.171Z,98784.22
2023-05-19T02:53:12.869Z,98766.13
2023-05-19T02:55:39.596Z,98770.22
2023-05-19T02:58:06.257Z,98770.09
2023-05-19T03:00:33.135Z,98768.25
2023-05-19T03:03:03.081Z,98762.63
2023-05-19T03:08:03.230Z,98767.53
2023-05-19T03:10:30.905Z,98761.13
2023-05-19T03:12:57.727Z,98759.50
2023-05-19T03:15:24.378Z,98765.63
2023-05-19T03:17:51.157Z,98760.88
2023-05-19T03:20:18.588Z,98766.47
2023-05-19T03:22:45.298Z,98765.63
2023-05-19T03:25:11.992Z,98766.44
2023-05-19T03:27:38.735Z,98766.63
2023-05-19T03:30:06.824Z,98767.88
2023-05-19T03:32:34.191Z,98763.25
2023-05-19T03:35:01.094Z,98768.72
2023-05-19T03:37:27.818Z,98765.72
2023-05-19T03:39:54.492Z,98767.44
2023-05-19T03:42:21.296Z,98758.47
2023-05-19T03:44:48.624Z,98757.78
2023-05-19T03:47:15.373Z,98769.84
2023-05-19T03:49:42.129Z,98772.34
2023-05-19T03:52:09.951Z,98770.94
2023-05-19T03:54:36.815Z,98768.06
2023-05-19T03:57:03.578Z,98764.63
2023-05-19T03:59:30.228Z,98768.50
2023-05-19T04:01:58.132Z,98779.31
2023-05-19T04:04:24.993Z,98775.25
2023-05-19T04:06:51.747Z,98774.59
2023-05-19T04:09:19.818Z,98773.53
2023-05-19T04:11:46.669Z,98783.00
2023-05-19T04:14:13.370Z,98791.03
2023-05-19T04:16:40.395Z,98789.81
2023-05-19T04:19:07.246Z,98785.25
2023-05-19T04:21:34.039Z,98782.47
2023-05-19T04:24:00.739Z,98793.81
2023-05-19T04:26:31.205Z,98793.50
2023-05-19T04:28:57.899Z,98786.84
2023-05-19T04:31:24.799Z,98782.47
2023-05-19T04:36:26.425Z,98801.94
2023-05-19T04:38:55.069Z,98791.88
2023-05-19T04:41:22.131Z,98796.19
2023-05-19T04:43:50.278Z,98795.69
2023-05-19T04:46:17.021Z,98800.34
2023-05-19T04:48:44.234Z,98800.06
2023-05-19T04:51:14.415Z,98798.13
2023-05-19T04:53:42.354Z,98807.78
2023-05-19T04:56:10.079Z,98800.38
2023-05-19T04:58:40.595Z,98796.97
2023-05-19T05:01:09.805Z,98800.31
2023-05-19T05:03:36.893Z,98797.84
2023-05-19T05:06:04.793Z,98802.38
2023-05-19T05:08:31.595Z,98788.34
2023-05-19T05:10:58.619Z,98793.25
2023-05-19T05:13:25.861Z,98795.25
2023-05-19T05:15:52.917Z,98788.91
2023-05-19T05:18:20.018Z,98789.75
2023-05-19T05:20:47.250Z,98787.56
2023-05-19T05:23:17.073Z,98783.47
2023-05-19T05:25:44.948Z,98789.38
2023-05-19T05:28:11.912Z,98788.50
2023-05-19T05:30:38.733Z,98790.88
2023-05-19T05:33:06.592Z,98793.28
2023-05-19T05:35:33.847Z,98788.50
2023-05-19T05:38:01.901Z,98781.72
2023-05-19T05:40:28.812Z,98782.19
2023-05-19T05:42:55.943Z,98793.44
2023-05-19T05:45:23.550Z,98790.88
2023-05-19T05:47:51.595Z,98794.94
2023-05-19T05:50:18.987Z,98795.44
2023-05-19T05:52:47.579Z,98798.44
2023-05-19T05:55:15.707Z,98797.00
2023-05-19T05:57:42.429Z,98801.84
2023-05-19T06:00:15.624Z,98799.13
2023-05-19T06:02:47.540Z,98795.75
2023-05-19T06:05:14.385Z,98793.06
2023-05-19T06:07:41.494Z,98799.16
2023-05-19T06:10:09.332Z,98800.97
2023-05-19T06:12:40.158Z,98796.75
2023-05-19T06:15:08.176Z,98792.88
2023-05-19T06:17:36.298Z,98786.38
2023-05-19T06:20:05.776Z,98786.75
2023-05-19T06:22:32.792Z,98788.25
2023-05-19T06:24:59.582Z,98787.16
2023-05-19T06:27:26.382Z,98781.66
2023-05-19T06:29:53.300Z,98791.25
2023-05-19T06:32:20.643Z,98774.81
2023-05-19T06:34:54.140Z,98783.69
2023-05-19T06:37:23.159Z,98785.44
2023-05-19T06:39:53.952Z,98777.00
2023-05-19T06:42:22.820Z,98784.16
2023-05-19T06:44:51.441Z,98784.53
2023-05-19T06:47:19.127Z,98782.19
2023-05-19T06:49:50.919Z,98786.63
2023-05-19T06:52:18.408Z,98780.41
2023-05-19T06:54:45.195Z,98774.56
2023-05-19T06:57:11.905Z,98781.97
2023-05-19T06:59:41.071Z,98784.13
2023-05-19T07:02:08.189Z,98778.19
2023-05-19T07:04:35.441Z,98776.25
2023-05-19T07:07:02.387Z,98782.56
2023-05-19T07:09:29.245Z,98784.13
2023-05-19T07:11:56.706Z,98783.81
2023-05-19T07:14:23.526Z,98777.44
2023-05-19T07:16:50.330Z,98777.13
2023-05-19T07:19:19.519Z,98782.56
2023-05-19T07:21:48.075Z,98781.72
2023-05-19T07:24:14.825Z,98782.50
2023-05-19T07:26:42.823Z,98775.50
2023-05-19T07:29:09.586Z,98787.28
2023-05-19T07:31:36.347Z,98778.19
2023-05-19T07:34:03.213Z,98784.13
2023-05-19T07:36:30.124Z,98777.72
2023-05-19T07:38:57.047Z,98772.91
2023-05-19T07:41:23.905Z,98775.41
2023-05-19T07:43:50.652Z,98773.81
2023-05-19T07:46:17.480Z,98775.03
2023-05-19T07:48:44.291Z,98776.22
2023-05-19T07:51:12.935Z,98771.97
2023-05-19T07:53:39.661Z,98779.34
2023-05-19T07:56:06.774Z,98769.91
2023-05-19T08:01:11.949Z,98766.72
2023-05-19T08:03:38.791Z,98762.78
2023-05-19T08:06:05.808Z,98769.47
2023-05-19T08:08:33.601Z,98765.16
2023-05-19T08:11:04.631Z,98768.28
2023-05-19T08:13:31.586Z,98764.81
2023-05-19T08:16:00.261Z,98756.56
2023-05-19T08:18:27.143Z,98760.56
2023-05-19T08:20:53.974Z,98753.94
2023-05-19T08:26:01.920Z,98754.72
2023-05-19T08:28:28.737Z,98750.38
2023-05-19T08:30:55.475Z,98759.38
2023-05-19T08:33:23.120Z,98747.97
2023-05-19T08:35:49.806Z,98751.03
2023-05-19T08:38:16.731Z,98750.00
2023-05-19T08:40:47.039Z,98741.69
2023-05-19T08:43:13.803Z,98741.84
2023-05-19T08:45:44.323Z,98738.69
2023-05-19T08:48:12.473Z,98751.66
2023-05-19T08:50:42.689Z,98755.19
2023-05-19T08:53:34.569Z,98750.91
2023-05-19T08:56:10.623Z,98752.06
2023-05-19T08:58:40.708Z,98743.38
2023-05-19T09:01:13.846Z,98740.97
2023-05-19T09:03:42.132Z,98747.25
2023-05-19T09:06:12.777Z,98742.53
2023-05-19T09:08:40.711Z,98741.81
2023-05-19T09:11:07.587Z,98741.50
2023-05-19T09:13:34.294Z,98743.69
2023-05-19T09:16:02.264Z,98735.06
2023-05-19T09:18:29.475Z,98740.19
2023-05-19T09:21:02.622Z,98744.13
2023-05-19T09:23:31.889Z,98742.13
2023-05-19T09:26:07.753Z,98739.47
2023-05-19T09:28:36.648Z,98741.38
2023-05-19T09:31:03.982Z,98736.34
2023-05-19T09:33:36.416Z,98735.19
2023-05-19T09:36:06.303Z,98743.44
2023-05-19T09:38:33.269Z,98738.00
2023-05-19T09:41:01.031Z,98734.00
2023-05-19T09:43:29.369Z,98734.84
2023-05-19T09:46:10.095Z,98729.34
2023-05-19T09:48:38.644Z,98739.59
2023-05-19T09:51:08.319Z,98734.06
2023-05-19T09:53:35.074Z,98731.78
2023-05-19T09:56:03.795Z,98732.16
2023-05-19T09:58:37.223Z,98723.09
2023-05-19T10:01:04.551Z,98727.44
2023-05-19T10:03:33.178Z,98728.56
2023-05-19T10:06:01.605Z,98733.25
2023-05-19T10:08:30.903Z,98719.94
2023-05-19T10:10:58.107Z,98723.38
2023-05-19T10:13:25.761Z,98723.69
2023-05-19T10:18:23.338Z,98731.72
2023-05-19T10:20:50.501Z,98729.34
2023-05-19T10:23:17.397Z,98718.31
2023-05-19T10:25:45.037Z,98718.78
2023-05-19T10:28:17.659Z,98717.94
2023-05-19T10:30:51.096Z,98717.63
2023-05-19T10:36:16.064Z,98712.13
2023-05-19T10:38:56.665Z,98717.22
2023-05-19T10:41:47.002Z,98712.53
2023-05-19T10:44:21.487Z,98713.34
2023-05-19T10:46:48.263Z,98715.69
2023-05-19T10:49:22.422Z,98709.28
2023-05-19T10:51:50.006Z,98712.91
2023-05-19T10:54:18.640Z,98705.41
2023-05-19T10:56:48.320Z,98707.38
2023-05-19T10:59:32.519Z,98710.16
2023-05-19T11:02:04.138Z,98716.03
2023-05-19T11:05:08.404Z,98715.25
2023-05-19T11:07:35.311Z,98701.91
2023-05-19T11:10:08.004Z,98705.81
2023-05-19T11:12:43.149Z,98708.19
2023-05-19T11:15:14.928Z,98711.75
2023-05-19T11:17:42.772Z,98711.75
2023-05-19T11:20:20.126Z,98707.06
2023-05-19T11:23:02.136Z,98712.91
2023-05-19T11:25:41.588Z,98702.75
2023-05-19T11:28:10.535Z,98709.38
2023-05-19T11:30:37.926Z,98704.66
2023-05-19T11:33:06.391Z,98705.00
2023-05-19T11:35:36.012Z,98705.00
2023-05-19T11:38:03.677Z,98707.34
2023-05-19T11:40:31.004Z,98704.22
2023-05-19T11:42:58.260Z,98709.34
2023-05-19T11:50:47.373Z,98706.59
2023-05-19T11:53:15.263Z,98699.47
2023-05-19T11:55:51.651Z,98703.47
2023-05-19T11:58:18.670Z,98701.50
2023-05-19T12:00:48.315Z,98692.06
2023-05-19T12:05:49.197Z,98687.41
2023-05-19T12:08:19.166Z,98687.34
2023-05-19T12:10:50.763Z,98690.16
2023-05-19T12:13:17.531Z,98688.59
2023-05-19T12:15:44.549Z,98678.75
2023-05-19T12:18:11.470Z,98690.16
2023-05-19T12:20:38.374Z,98683.88
2023-05-19T12:23:05.332Z,98679.53
2023-05-19T12:25:32.817Z,98681.47
2023-05-19T12:28:03.345Z,98677.53
2023-05-19T12:30:32.409Z,98681.88
2023-05-19T12:32:59.955Z,98684.63
2023-05-19T12:35:28.296Z,98687.75
2023-05-19T12:37:55.270Z,98683.88
2023-05-19T12:40:22.291Z,98688.16
2023-05-19T12:42:52.248Z,98688.19
2023-05-19T12:45:22.544Z,98694.09
2023-05-19T12:47:49.702Z,98686.22
2023-05-19T12:50:16.513Z,98685.44
2023-05-19T12:52:45.826Z,98695.28
2023-05-19T12:55:14.402Z,98682.63
2023-05-19T12:57:43.052Z,98686.56
2023-05-19T13:00:21.124Z,98691.63
2023-05-19T13:03:07.979Z,98686.16
2023-05-19T13:05:39.162Z,98686.59
2023-05-19T13:08:08.579Z,98684.22
2023-05-19T13:10:37.166Z,98681.06
2023-05-19T13:13:04.863Z,98683.06
2023-05-19T13:15:37.964Z,98679.13
2023-05-19T13:18:06.741Z,98684.66
2023-05-19T13:20:34.690Z,98679.91
2023-05-19T13:23:01.885Z,98673.22
2023-05-19T13:25:28.585Z,98678.75
2023-05-19T13:27:55.600Z,98673.63
2023-05-19T13:30:23.350Z,98678.34
2023-05-19T13:32:50.941Z,98668.91
2023-05-19T13:35:17.662Z,98677.56
2023-05-19T13:37:44.789Z,98664.97
2023-05-19T13:40:12.380Z,98666.53
2023-05-19T13:42:39.510Z,98664.19
2023-05-19T13:45:06.677Z,98662.63
2023-05-19T13:47:33.412Z,98666.94
2023-05-19T13:50:00.124Z,98652.38
2023-05-19T13:52:28.368Z,98661.81
2023-05-19T13:54:57.125Z,98658.28
2023-05-19T13:57:24.411Z,98661.41
2023-05-19T14:00:01.682Z,98666.91
2023-05-19T14:02:30.496Z,98665.34
2023-05-19T14:07:36.123Z,98647.59
2023-05-19T14:10:05.751Z,98651.16
2023-05-19T14:12:41.416Z,98649.16
2023-05-19T14:15:14.592Z,98648.41
2023-05-19T14:17:41.646Z,98644.47
2023-05-19T14:20:09.844Z,98645.28
2023-05-19T14:22:36.531Z,98640.94
2023-05-19T14:27:41.189Z,98640.56
2023-05-19T14:30:08.498Z,98639.38
2023-05-19T14:32:35.371Z,98636.59
2023-05-19T14:35:02.504Z,98637.75
2023-05-19T14:37:29.323Z,98641.31
2023-05-19T14:39:57.243Z,98639.75
2023-05-19T14:42:24.355Z,98638.56
2023-05-19T14:44:51.081Z,98642.91
2023-05-19T14:47:17.810Z,98639.34
2023-05-19T14:49:44.505Z,98645.28
2023-05-19T14:52:11.191Z,98650.81
2023-05-19T14:54:37.935Z,98645.28
2023-05-19T14:57:04.808Z,98646.09
2023-05-19T14:59:31.618Z,98644.50
2023-05-19T15:01:58.278Z,98651.56
2023-05-19T15:04:25.091Z,98646.06
2023-05-19T15:07:05.790Z,98637.00
2023-05-19T15:09:36.409Z,98646.44
2023-05-19T15:12:03.205Z,98642.88
2023-05-19T15:14:30.981Z,98636.59
2023-05-19T15:16:58.712Z,98636.59
2023-05-19T15:19:26.329Z,98629.53
2023-05-19T15:21:53.174Z,98633.41
2023-05-19T15:24:19.892Z,98637.34
2023-05-19T15:26:47.384Z,98624.72
2023-05-19T15:29:14.121Z,98631.06
2023-05-19T15:31:41.735Z,98627.91
2023-05-19T15:34:08.697Z,98620.00
2023-05-19T15:36:35.775Z,98620.06
2023-05-19T15:39:04.012Z,98619.25
2023-05-19T15:41:30.829Z,98622.34
2023-05-19T15:44:00.467Z,98616.03
2023-05-19T15:46:27.545Z,98612.50
2023-05-19T15:48:54.318Z,98614.47
2023-05-19T15:51:21.285Z,98605.78
2023-05-19T15:53:48.376Z,98605.81
2023-05-19T15:56:15.199Z,98600.72
2023-05-19T15:58:41.924Z,98604.25
2023-05-19T16:01:09.021Z,98599.97
2023-05-19T16:03:35.876Z,98599.16
2023-05-19T16:06:02.761Z,98592.84
2023-05-19T16:08:29.746Z,98591.25
2023-05-19T16:10:56.537Z,98586.09
2023-05-19T16:13:23.280Z,98585.28
2023-05-19T16:15:50.056Z,98585.34
2023-05-19T16:18:16.872Z,98574.66
2023-05-19T16:20:44.378Z,98568.31
2023-05-19T16:23:11.107Z,98578.19
2023-05-19T16:25:37.731Z,98569.53
2023-05-19T16:28:04.658Z,98563.25
2023-05-19T16:30:31.381Z,98560.06
2023-05-19T16:32:58.262Z,98552.59
2023-05-19T16:35:25.357Z,98553.41
2023-05-19T16:37:52.036Z,98552.59
2023-05-19T16:40:18.677Z,98559.75
2023-05-19T16:42:45.698Z,98563.72
2023-05-19T16:45:12.493Z,98556.28
2023-05-19T16:47:39.232Z,98553.06
2023-05-19T16:50:06.740Z,98557.78
2023-05-19T16:52:33.569Z,98557.06
2023-05-19T16:55:00.181Z,98548.81
2023-05-19T16:57:26.983Z,98557.06
2023-05-19T16:59:53.724Z,98546.88
2023-05-19T17:02:20.658Z,98548.41
2023-05-19T17:04:47.426Z,98542.94
2023-05-19T17:07:17.506Z,98550.81
2023-05-19T17:09:44.885Z,98548.44
2023-05-19T17:12:11.621Z,98555.13
2023-05-19T17:14:38.317Z,98552.41
2023-05-19T17:17:05.225Z,98555.19
2023-05-19T17:19:32.181Z,98539.50
2023-05-19T17:21:59.048Z,98536.78
2023-05-19T17:27:00.168Z,98539.13
2023-05-19T17:29:29.606Z,98544.25
2023-05-19T17:31:56.457Z,98539.91
2023-05-19T17:34:23.303Z,98539.13
2023-05-19T17:36:49.980Z,98535.97
2023-05-19T17:39:16.891Z,98538.34
2023-05-19T17:41:43.661Z,98531.66
2023-05-19T17:44:11.352Z,98532.44
2023-05-19T17:46:39.437Z,98528.91
2023-05-19T17:49:06.684Z,98528.13
2023-05-19T17:51:33.837Z,98533.66
2023-05-19T17:54:00.778Z,98535.19
2023-05-19T17:56:30.446Z,98529.28
2023-05-19T17:58:57.325Z,98529.31
2023-05-19T18:01:25.993Z,98535.97
2023-05-19T18:03:53.215Z,98525.00
2023-05-19T18:06:20.700Z,98525.00
2023-05-19T18:08:50.719Z,98527.34
2023-05-19T18:11:18.838Z,98526.56
2023-05-19T18:13:45.853Z,98530.50
2023-05-19T18:16:12.911Z,98535.22
2023-05-19T18:18:43.595Z,98535.22
2023-05-19T18:21:14.544Z,98535.22
2023-05-19T18:23:41.653Z,98522.66
2023-05-19T18:26:08.364Z,98519.50
2023-05-19T18:28:35.643Z,98521.44
2023-05-19T18:33:37.942Z,98518.69
2023-05-19T18:36:04.842Z,98513.19
2023-05-19T18:38:31.581Z,98512.41
2023-05-19T18:40:58.488Z,98506.53
2023-05-19T18:43:25.350Z,98511.63
2023-05-19T18:45:52.189Z,98503.75
2023-05-19T18:48:18.982Z,98513.16
2023-05-19T18:50:45.831Z,98512.38
2023-05-19T18:53:12.616Z,98511.19
2023-05-19T18:55:39.370Z,98509.66
2023-05-19T18:58:06.390Z,98514.72
2023-05-19T19:00:35.139Z,98511.59
2023-05-19T19:03:02.653Z,98515.44
2023-05-19T19:05:29.356Z,98507.91
2023-05-19T19:07:56.398Z,98514.63
2023-05-19T19:10:23.250Z,98506.44
2023-05-19T19:12:50.010Z,98514.63
2023-05-19T19:15:16.701Z,98516.63
2023-05-19T19:17:43.926Z,98512.66
2023-05-19T19:20:11.309Z,98518.59
2023-05-19T19:22:38.114Z,98516.22
2023-05-19T19:25:05.123Z,98518.59
2023-05-19T19:27:31.842Z,98524.44
2023-05-19T19:29:58.927Z,98531.09
2023-05-19T19:32:25.918Z,98526.41
2023-05-19T19:34:53.502Z,98527.16
2023-05-19T19:37:20.315Z,98536.63
2023-05-19T19:39:47.088Z,98528.72
2023-05-19T19:42:13.802Z,98531.91
2023-05-19T19:47:12.203Z,98531.13
2023-05-19T19:49:38.882Z,98525.59
2023-05-19T19:54:37.198Z,98524.41
2023-05-19T19:57:04.390Z,98526.72
2023-05-19T19:59:31.124Z,98521.94
2023-05-19T20:01:57.952Z,98523.91
2023-05-19T20:06:55.905Z,98528.59
2023-05-19T20:09:22.567Z,98522.34
2023-05-19T20:11:49.248Z,98530.13
2023-05-19T20:16:50.392Z,98527.44
2023-05-19T20:19:17.355Z,98529.38
2023-05-19T20:21:44.840Z,98530.13
2023-05-19T20:24:11.720Z,98533.34
2023-05-19T20:26:38.362Z,98530.19
2023-05-19T20:29:05.094Z,98533.28
2023-05-19T20:31:31.783Z,98528.63
2023-05-19T20:33:59.483Z,98527.03
2023-05-19T20:36:28.180Z,98520.72
2023-05-19T20:38:54.904Z,98515.31
2023-05-19T20:41:22.743Z,98521.59
2023-05-19T20:43:49.535Z,98525.50
2023-05-19T20:46:16.511Z,98521.19
2023-05-19T20:48:43.194Z,98523.19
2023-05-19T20:51:09.931Z,98521.13
2023-05-19T20:53:36.834Z,98523.88
2023-05-19T20:56:05.475Z,98519.19
2023-05-19T20:58:32.289Z,98512.16
2023-05-19T21:00:59.129Z,98512.97
2023-05-19T21:03:27.220Z,98515.72
2023-05-19T21:05:54.900Z,98517.28
2023-05-19T21:08:21.662Z,98520.03
2023-05-19T21:10:48.789Z,98516.09
2023-05-19T21:13:15.578Z,98519.25
2023-05-19T21:15:42.282Z,98515.31
2023-05-19T21:18:09.188Z,98513.75
2023-05-19T21:20:36.136Z,98505.13
2023-05-19T21:23:03.021Z,98503.50
2023-05-19T21:28:01.318Z,98500.66
2023-05-19T21:30:28.107Z,98509.66
2023-05-19T21:32:54.990Z,98497.91
2023-05-19T21:35:21.754Z,98499.53
2023-05-19T21:37:48.479Z,98494.81
2023-05-19T21:40:15.103Z,98500.59
2023-05-19T21:42:41.809Z,98493.66
2023-05-19T21:45:08.910Z,98495.06
2023-05-19T21:47:36.046Z,98490.22
2023-05-19T21:50:02.812Z,98491.09
2023-05-19T21:52:29.581Z,98490.75
2023-05-19T21:54:56.430Z,98490.75
2023-05-19T21:59:56.938Z,98480.44
2023-05-19T22:02:23.641Z,98480.34
2023-05-19T22:04:50.372Z,98470.69
2023-05-19T22:07:17.061Z,98474.94
2023-05-19T22:09:43.780Z,98464.06
2023-05-19T22:12:10.612Z,98466.72
2023-05-19T22:17:14.246Z,98472.22
2023-05-19T22:19:40.922Z,98478.22
2023-05-19T22:22:13.745Z,98476.63
2023-05-19T22:24:41.253Z,98475.31
2023-05-19T22:27:08.607Z,98477.63
2023-05-19T22:29:38.963Z,98471.50
2023-05-19T22:32:07.865Z,98468.59
2023-05-19T22:34:34.553Z,98477.97
2023-05-19T22:37:02.087Z,98471.75
2023-05-19T22:39:28.796Z,98463.78
2023-05-19T22:41:55.685Z,98470.59
2023-05-19T22:44:22.352Z,98467.63
2023-05-19T22:46:49.079Z,98472.34
2023-05-19T22:49:15.784Z,98471.03
2023-05-19T22:51:42.536Z,98464.31
2023-05-19T22:54:09.809Z,98471.44
2023-05-19T22:56:36.587Z,98464.53
2023-05-19T22:59:03.332Z,98461.94
2023-05-19T23:01:30.054Z,98459.50
2023-05-19T23:03:56.948Z,98457.97
2023-05-19T23:06:23.793Z,98453.59
2023-05-19T23:09:00.638Z,98459.63
2023-05-19T23:11:27.419Z,98457.75
2023-05-19T23:22:25.448Z,98445.38
2023-05-19T23:24:52.136Z,98450.75
2023-05-19T23:27:18.804Z,98446.44
2023-05-19T23:29:49.313Z,98447.69
2023-05-19T23:32:16.263Z,98439.75
2023-05-19T23:34:43.019Z,98442.63
2023-05-19T23:37:09.966Z,98438.50
2023-05-19T23:39:38.474Z,98440.47
2023-05-19T23:42:06.008Z,98439.75
2023-05-19T23:44:32.821Z,98430.75
2023-05-19T23:46:59.866Z,98435.09
2023-05-19T23:49:26.677Z,98430.84
2023-05-19T23:51:53.578Z,98436.28
2023-05-19T23:54:20.506Z,98426.16
2023-05-19T23:56:47.202Z,98427.03
2023-05-19T23:59:13.884Z,98430.09
